Time;durP1;ratioP1;P1;durP2;ratioP2;P2;SDS_P1;SDS_P2;PMS_P1;PMS_P2;Temp;Humidity;BMP_temperature;BMP_pressure;BME280_temperature;BME280_humidity;BME280_pressure;Samples;Min_cycle;Max_cycle;Signal;HPM_P1;HPM_P2
2022/04/06 00:00:31;;;;;;;24.15;13.15;;;9.90;99.90;;;;;;4965960;28;20121;-88
2022/04/06 00:02:58;;;;;;;31.02;12.52;;;9.90;99.90;;;;;;4963732;28;20113;-89
2022/04/06 00:05:24;;;;;;;31.42;12.02;;;9.90;99.90;;;;;;4968329;28;20037;-87
2022/04/06 00:07:49;;;;;;;27.85;10.68;;;9.90;99.90;;;;;;4966515;28;20026;-88
2022/04/06 00:10:15;;;;;;;24.95;10.90;;;9.90;99.90;;;;;;4965173;28;20042;-89
2022/04/06 00:12:41;;;;;;;26.95;11.65;;;9.90;99.90;;;;;;4982453;28;20660;-88
2022/04/06 00:15:09;;;;;;;28.90;12.57;;;9.90;99.90;;;;;;4967411;28;20031;-88
2022/04/06 00:17:35;;;;;;;25.65;11.60;;;9.90;99.90;;;;;;4962348;28;20038;-88
2022/04/06 00:20:01;;;;;;;26.23;11.13;;;9.90;99.90;;;;;;4968904;28;20030;-88
2022/04/06 00:22:26;;;;;;;27.17;10.30;;;9.90;99.90;;;;;;4968680;28;20057;-87
2022/04/06 00:24:52;;;;;;;24.73;10.35;;;9.90;99.90;;;;;;4969189;28;20023;-89
2022/04/06 00:27:18;;;;;;;32.70;10.90;;;9.90;99.90;;;;;;4970193;28;20022;-89
2022/04/06 00:29:44;;;;;;;26.63;11.27;;;9.90;99.90;;;;;;4971142;28;20034;-87
2022/04/06 00:32:10;;;;;;;27.20;11.50;;;9.80;99.90;;;;;;4967688;28;20030;-89
2022/04/06 00:37:20;;;;;;;27.65;12.70;;;9.80;99.90;;;;;;4985894;28;21221;-89
2022/04/06 00:39:45;;;;;;;32.33;12.88;;;9.80;99.90;;;;;;4968796;28;20030;-88
2022/04/06 00:42:11;;;;;;;32.42;13.35;;;9.90;99.90;;;;;;4973484;28;20360;-89
2022/04/06 00:44:37;;;;;;;31.73;11.63;;;9.90;99.90;;;;;;4970285;28;20098;-88
2022/04/06 00:47:03;;;;;;;29.50;11.90;;;9.90;99.90;;;;;;4967675;28;20026;-89
2022/04/06 00:49:29;;;;;;;28.02;11.95;;;9.80;99.90;;;;;;4965901;28;20101;-88
2022/04/06 00:51:55;;;;;;;25.38;12.30;;;9.80;99.90;;;;;;4965715;28;20109;-89
2022/04/06 00:54:23;;;;;;;26.67;10.57;;;9.80;99.90;;;;;;4966138;28;20125;-88
2022/04/06 00:56:49;;;;;;;30.80;11.85;;;9.80;99.90;;;;;;4966149;28;20026;-89
2022/04/06 00:59:16;;;;;;;25.80;10.70;;;9.80;99.90;;;;;;4967806;28;20675;-89
2022/04/06 01:01:45;;;;;;;26.35;10.60;;;9.80;99.90;;;;;;4983717;28;20030;-88
2022/04/06 01:04:11;;;;;;;28.23;10.93;;;9.80;99.90;;;;;;4962971;28;20034;-88
2022/04/06 01:06:36;;;;;;;24.20;10.45;;;9.80;99.90;;;;;;4964798;28;20037;-88
2022/04/06 01:09:02;;;;;;;29.52;10.38;;;9.80;99.90;;;;;;4964460;28;20253;-89
2022/04/06 01:11:28;;;;;;;32.00;11.23;;;9.80;99.90;;;;;;4967630;28;20406;-88
2022/04/06 01:13:55;;;;;;;25.05;10.35;;;9.80;99.90;;;;;;4967010;28;20030;-88
2022/04/06 01:16:20;;;;;;;27.67;9.90;;;9.80;99.90;;;;;;4965848;28;20026;-89
2022/04/06 01:18:46;;;;;;;29.10;10.20;;;9.80;99.90;;;;;;4966983;28;20061;-88
2022/04/06 01:21:12;;;;;;;25.45;9.85;;;9.80;99.90;;;;;;4966000;28;20130;-88
2022/04/06 01:23:42;;;;;;;32.15;10.73;;;9.80;99.90;;;;;;4965129;28;20576;-88
2022/04/06 01:26:09;;;;;;;24.55;9.75;;;9.80;99.90;;;;;;4968892;28;20030;-89
2022/04/06 01:28:36;;;;;;;23.08;9.02;;;9.80;99.90;;;;;;4957459;28;20038;-88
2022/04/06 01:31:02;;;;;;;29.25;10.35;;;9.80;99.90;;;;;;4965054;28;20033;-88
2022/04/06 01:33:28;;;;;;;19.63;8.85;;;9.80;99.90;;;;;;4964914;28;20042;-89
2022/04/06 01:35:54;;;;;;;26.50;9.50;;;9.80;99.90;;;;;;4965867;28;20149;-88
2022/04/06 01:38:20;;;;;;;24.13;8.57;;;9.80;99.90;;;;;;4958619;28;20026;-86
2022/04/06 01:40:45;;;;;;;23.25;7.93;;;9.80;99.90;;;;;;4966803;28;20093;-88
2022/04/06 01:43:11;;;;;;;26.05;7.75;;;9.70;99.90;;;;;;4965532;28;20398;-88
2022/04/06 01:45:36;;;;;;;20.50;7.63;;;9.70;99.90;;;;;;4987494;28;20094;-87
2022/04/06 01:48:02;;;;;;;17.60;6.82;;;9.70;99.90;;;;;;4972679;28;20041;-87
2022/04/06 01:53:11;;;;;;;18.10;6.60;;;9.70;99.90;;;;;;4989231;28;20045;-88
2022/04/06 01:55:37;;;;;;;24.55;7.28;;;9.70;99.90;;;;;;4971770;28;20034;-88
2022/04/06 01:58:02;;;;;;;29.02;7.63;;;9.70;99.90;;;;;;4971684;28;20038;-89
2022/04/06 02:00:28;;;;;;;19.42;7.05;;;9.70;99.90;;;;;;4970047;28;20026;-88
2022/04/06 02:02:54;;;;;;;25.13;7.22;;;9.70;99.90;;;;;;4987994;28;20113;-88
2022/04/06 02:05:21;;;;;;;28.42;7.75;;;9.60;99.90;;;;;;4972151;28;20026;-89
2022/04/06 02:07:47;;;;;;;23.55;6.57;;;9.60;99.90;;;;;;4972099;28;20026;-89
2022/04/06 02:10:13;;;;;;;17.92;6.30;;;9.60;99.90;;;;;;4971139;28;20041;-88
2022/04/06 02:12:40;;;;;;;21.50;7.43;;;9.60;99.90;;;;;;4970999;28;20122;-89
2022/04/06 02:15:10;;;;;;;24.77;7.13;;;9.60;99.90;;;;;;4967250;28;20031;-88
2022/04/06 02:17:35;;;;;;;21.35;5.75;;;9.60;99.90;;;;;;4970870;28;20018;-88
2022/04/06 02:20:01;;;;;;;18.65;6.07;;;9.60;99.90;;;;;;4969188;28;20030;-88
2022/04/06 02:22:26;;;;;;;27.15;5.93;;;9.60;99.90;;;;;;4970399;28;20037;-88
2022/04/06 02:24:52;;;;;;;16.80;6.53;;;9.60;99.90;;;;;;4970121;28;20029;-89
2022/04/06 02:27:17;;;;;;;18.25;5.32;;;9.60;99.90;;;;;;4989810;28;20081;-88
2022/04/06 02:29:43;;;;;;;18.73;5.60;;;9.60;99.90;;;;;;4971429;28;20636;-88
2022/04/06 02:32:09;;;;;;;23.55;5.50;;;9.60;99.90;;;;;;4969173;28;20037;-89
2022/04/06 02:34:35;;;;;;;21.27;6.30;;;9.60;99.90;;;;;;4967942;28;20096;-88
2022/04/06 02:37:01;;;;;;;17.70;5.93;;;9.60;99.90;;;;;;4966542;28;20505;-89
2022/04/06 02:39:26;;;;;;;22.77;6.00;;;9.60;99.90;;;;;;4969724;28;20038;-88
2022/04/06 02:41:53;;;;;;;19.88;5.95;;;9.60;99.90;;;;;;4971201;28;20077;-87
2022/04/06 02:44:18;;;;;;;16.13;5.70;;;9.60;99.90;;;;;;4988950;28;20479;-89
2022/04/06 02:46:45;;;;;;;15.13;4.95;;;9.60;99.90;;;;;;4987497;28;20034;-88
2022/04/06 02:49:11;;;;;;;16.05;4.97;;;9.60;99.90;;;;;;4967080;28;20038;-88
2022/04/06 02:51:36;;;;;;;18.55;5.07;;;9.60;99.90;;;;;;4969485;28;20497;-88
2022/04/06 02:54:02;;;;;;;16.42;5.35;;;9.50;99.90;;;;;;4968498;28;20026;-88
2022/04/06 02:56:28;;;;;;;20.50;4.65;;;9.50;99.90;;;;;;4968403;28;20240;-89
2022/04/06 02:58:53;;;;;;;16.88;5.22;;;9.60;99.90;;;;;;4971826;28;20474;-88
2022/04/06 03:01:20;;;;;;;20.88;4.32;;;9.60;99.90;;;;;;4967678;28;20833;-88
2022/04/06 03:03:45;;;;;;;15.23;4.88;;;9.50;99.90;;;;;;4960908;28;20045;-88
2022/04/06 03:06:11;;;;;;;12.55;4.25;;;9.50;99.90;;;;;;4969509;28;20398;-88
2022/04/06 03:08:36;;;;;;;16.10;4.30;;;9.50;99.90;;;;;;4968307;28;20027;-88
2022/04/06 03:11:02;;;;;;;14.65;3.97;;;9.50;99.90;;;;;;4969627;28;20125;-88
2022/04/06 03:13:27;;;;;;;14.15;3.25;;;9.50;99.90;;;;;;4966510;28;20061;-89
2022/04/06 03:15:53;;;;;;;11.27;3.88;;;9.50;99.90;;;;;;4965368;28;20057;-89
2022/04/06 03:18:19;;;;;;;18.77;4.18;;;9.50;99.90;;;;;;4966598;28;20035;-88
2022/04/06 03:20:44;;;;;;;15.43;3.95;;;9.50;99.90;;;;;;4968653;28;20031;-87
2022/04/06 03:23:10;;;;;;;15.63;3.72;;;9.50;99.90;;;;;;4962717;28;20038;-88
2022/04/06 03:25:35;;;;;;;12.10;3.22;;;9.50;99.90;;;;;;4969034;28;20026;-88
2022/04/06 03:28:01;;;;;;;15.50;3.33;;;9.50;99.90;;;;;;4964725;28;20062;-89
2022/04/06 03:30:26;;;;;;;17.20;4.38;;;9.50;99.90;;;;;;4966800;28;20479;-87
2022/04/06 03:32:52;;;;;;;13.48;3.08;;;9.40;99.90;;;;;;4966835;28;20023;-87
2022/04/06 03:35:17;;;;;;;12.60;4.25;;;9.40;99.90;;;;;;4963160;28;20038;-88
2022/04/06 03:37:43;;;;;;;10.10;2.88;;;9.40;99.90;;;;;;4965323;28;20065;-88
2022/04/06 03:40:10;;;;;;;15.40;3.38;;;9.40;99.90;;;;;;4961489;28;20031;-88
2022/04/06 03:42:35;;;;;;;13.25;3.38;;;9.40;99.90;;;;;;4967856;28;20038;-89
2022/04/06 03:45:02;;;;;;;16.05;2.67;;;9.30;99.90;;;;;;4963687;28;20030;-89
2022/04/06 03:47:32;;;;;;;10.73;2.97;;;9.30;99.90;;;;;;4980099;28;20062;-88
2022/04/06 03:49:59;;;;;;;13.00;2.67;;;9.30;99.90;;;;;;4966230;28;20130;-89
2022/04/06 03:52:25;;;;;;;12.25;2.90;;;9.20;99.90;;;;;;4964261;28;20031;-88
2022/04/06 03:54:51;;;;;;;10.25;2.97;;;9.20;99.90;;;;;;4964382;28;20035;-89
2022/04/06 03:57:17;;;;;;;11.25;2.92;;;9.20;99.90;;;;;;4961875;28;20570;-88
2022/04/06 03:59:43;;;;;;;14.23;2.92;;;9.20;99.90;;;;;;4962307;28;20038;-88
2022/04/06 04:02:08;;;;;;;16.55;2.55;;;9.20;99.90;;;;;;4962333;28;20031;-88
2022/04/06 04:04:34;;;;;;;12.25;2.53;;;9.20;99.90;;;;;;4962238;28;20041;-88
2022/04/06 04:06:59;;;;;;;14.68;2.28;;;9.20;99.90;;;;;;4965290;28;20514;-89
2022/04/06 04:09:25;;;;;;;18.70;2.97;;;9.20;99.90;;;;;;4959690;28;20034;-88
2022/04/06 04:11:51;;;;;;;14.07;2.40;;;9.20;99.90;;;;;;4959165;28;20085;-86
2022/04/06 04:14:16;;;;;;;9.98;1.92;;;9.20;99.90;;;;;;4962508;28;20054;-88
2022/04/06 04:16:42;;;;;;;12.63;2.08;;;9.20;99.90;;;;;;4963596;28;20102;-88
2022/04/06 04:19:07;;;;;;;14.52;2.22;;;9.20;99.90;;;;;;4963242;28;20030;-89
2022/04/06 04:21:33;;;;;;;11.02;2.13;;;9.20;99.90;;;;;;4958447;28;20891;-89
2022/04/06 04:24:02;;;;;;;13.13;2.60;;;9.20;99.90;;;;;;4960842;28;20037;-88
2022/04/06 04:26:28;;;;;;;16.67;2.65;;;9.20;99.90;;;;;;4964944;28;20078;-88
2022/04/06 04:28:54;;;;;;;12.57;3.22;;;9.20;99.90;;;;;;4961757;28;21605;-88
2022/04/06 04:31:20;;;;;;;18.90;2.42;;;9.20;99.90;;;;;;4958961;28;20034;-87
2022/04/06 04:33:45;;;;;;;14.95;3.55;;;9.10;99.90;;;;;;4954301;28;20035;-89
2022/04/06 04:36:11;;;;;;;10.90;2.22;;;9.10;99.90;;;;;;4967846;28;20494;-88
2022/04/06 04:38:37;;;;;;;10.93;2.80;;;9.20;99.90;;;;;;4961398;28;20038;-89
2022/04/06 04:41:03;;;;;;;12.65;2.88;;;9.10;99.90;;;;;;4962884;28;20031;-88
2022/04/06 04:43:29;;;;;;;11.63;2.25;;;9.10;99.90;;;;;;4979244;28;20030;-89
2022/04/06 04:45:54;;;;;;;13.95;2.65;;;9.20;99.90;;;;;;4961872;28;20034;-88
2022/04/06 04:48:20;;;;;;;8.88;2.33;;;9.20;99.90;;;;;;4961572;28;20962;-88
2022/04/06 04:50:45;;;;;;;11.13;2.25;;;9.10;99.90;;;;;;4962633;28;20037;-88
2022/04/06 04:53:11;;;;;;;5.78;2.03;;;9.10;99.90;;;;;;4962970;28;20033;-88
2022/04/06 04:55:36;;;;;;;9.55;2.33;;;9.10;99.90;;;;;;4963997;28;20043;-88
2022/04/06 04:58:02;;;;;;;11.13;2.03;;;9.20;99.90;;;;;;4964522;28;20026;-88
2022/04/06 05:00:27;;;;;;;8.15;2.03;;;9.10;99.90;;;;;;4962894;28;20035;-87
2022/04/06 05:02:53;;;;;;;9.10;2.17;;;9.10;99.90;;;;;;4956969;28;20031;-89
2022/04/06 05:05:19;;;;;;;9.65;1.92;;;9.20;99.90;;;;;;4957267;28;20087;-88
2022/04/06 05:07:45;;;;;;;13.20;1.83;;;9.10;99.90;;;;;;4966995;28;20054;-88
2022/04/06 05:10:10;;;;;;;7.28;1.70;;;9.10;99.90;;;;;;4968752;28;20047;-88
2022/04/06 05:12:36;;;;;;;9.13;1.65;;;9.10;99.90;;;;;;4964311;28;20051;-89
2022/04/06 05:15:04;;;;;;;7.97;1.63;;;9.10;99.90;;;;;;4965590;28;20039;-87
2022/04/06 05:17:30;;;;;;;9.93;2.15;;;9.20;99.90;;;;;;4964874;28;20209;-87
2022/04/06 05:19:56;;;;;;;12.10;1.83;;;9.10;99.90;;;;;;4962137;28;20085;-88
2022/04/06 05:22:21;;;;;;;8.75;1.58;;;9.20;99.90;;;;;;4964325;28;20483;-88
2022/04/06 05:24:47;;;;;;;12.10;2.25;;;9.20;99.90;;;;;;4965142;28;20039;-88
2022/04/06 05:27:13;;;;;;;13.75;2.40;;;9.20;99.90;;;;;;4964544;28;20037;-88
2022/04/06 05:29:39;;;;;;;13.38;2.03;;;9.20;99.90;;;;;;4965383;28;20042;-88
2022/04/06 05:32:05;;;;;;;10.70;1.75;;;9.20;99.90;;;;;;4971684;28;20033;-89
2022/04/06 05:34:30;;;;;;;10.52;1.98;;;9.20;99.90;;;;;;4962851;28;20438;-87
2022/04/06 05:36:56;;;;;;;13.77;3.17;;;9.20;99.90;;;;;;4966077;28;20023;-85
2022/04/06 05:39:22;;;;;;;13.50;2.22;;;9.20;99.90;;;;;;4959825;28;20838;-89
2022/04/06 05:41:49;;;;;;;11.88;2.38;;;9.20;99.90;;;;;;4960566;28;20162;-87
2022/04/06 05:44:16;;;;;;;14.30;2.90;;;9.30;99.90;;;;;;4959684;28;20035;-88
2022/04/06 05:46:41;;;;;;;13.57;2.88;;;9.30;99.90;;;;;;4962296;28;20022;-89
2022/04/06 05:49:07;;;;;;;11.07;2.70;;;9.30;99.90;;;;;;4960704;28;20641;-89
2022/04/06 05:51:34;;;;;;;15.65;3.50;;;9.30;99.90;;;;;;4963857;28;20027;-88
2022/04/06 05:54:00;;;;;;;15.23;4.00;;;9.30;99.90;;;;;;4964987;28;20046;-88
2022/04/06 05:56:26;;;;;;;14.38;2.85;;;9.30;99.90;;;;;;4957127;28;20476;-88
2022/04/06 05:58:51;;;;;;;15.10;3.42;;;9.40;99.90;;;;;;4965216;28;20045;-88
2022/04/06 06:01:17;;;;;;;17.85;4.15;;;9.40;99.90;;;;;;4962547;28;20113;-88
2022/04/06 06:03:43;;;;;;;14.32;3.95;;;9.40;99.90;;;;;;4979460;28;20081;-88
2022/04/06 06:06:08;;;;;;;13.75;4.65;;;9.40;99.90;;;;;;4974266;28;20027;-89
2022/04/06 06:08:34;;;;;;;18.35;4.10;;;9.40;99.90;;;;;;4975611;28;20074;-88
2022/04/06 06:11:00;;;;;;;12.95;3.70;;;9.40;99.90;;;;;;4975497;28;20058;-88
2022/04/06 06:13:25;;;;;;;17.27;3.92;;;9.40;99.90;;;;;;4975512;28;20047;-88
2022/04/06 06:15:51;;;;;;;18.33;4.10;;;9.50;99.90;;;;;;4975025;28;20027;-89
2022/04/06 06:18:16;;;;;;;12.52;4.03;;;9.50;99.90;;;;;;4975195;28;20066;-89
2022/04/06 06:20:42;;;;;;;14.25;4.10;;;9.50;99.90;;;;;;4975440;28;20058;-89
2022/04/06 06:23:08;;;;;;;19.77;4.45;;;9.50;99.90;;;;;;4976719;28;20034;-88
2022/04/06 06:25:37;;;;;;;17.67;3.28;;;9.60;99.90;;;;;;4975384;28;20109;-89
2022/04/06 06:28:06;;;;;;;18.30;3.80;;;9.60;99.90;;;;;;4975700;28;20503;-90
2022/04/06 06:30:32;;;;;;;19.10;3.45;;;9.60;99.90;;;;;;4976469;28;20043;-89
2022/04/06 06:32:57;;;;;;;15.10;3.33;;;9.70;99.90;;;;;;4968724;28;20621;-87
2022/04/06 06:35:24;;;;;;;18.40;3.72;;;9.70;99.90;;;;;;4959942;28;20055;-89
2022/04/06 06:37:55;;;;;;;11.98;3.03;;;9.70;99.90;;;;;;4976077;28;20609;-89
2022/04/06 06:40:22;;;;;;;10.15;2.50;;;9.80;99.90;;;;;;4970270;28;20076;-88
2022/04/06 06:42:48;;;;;;;11.57;2.28;;;9.80;99.90;;;;;;4975641;28;20054;-88
2022/04/06 06:45:14;;;;;;;10.55;1.95;;;9.80;99.90;;;;;;4974343;28;20054;-87
2022/04/06 06:47:40;;;;;;;11.63;1.85;;;9.80;99.90;;;;;;4974555;28;20039;-88
2022/04/06 06:50:10;;;;;;;11.95;1.75;;;9.80;99.90;;;;;;4974118;28;20041;-88
2022/04/06 06:52:36;;;;;;;10.35;1.48;;;9.90;99.90;;;;;;4970816;28;20100;-89
2022/04/06 06:55:04;;;;;;;8.27;1.00;;;9.90;99.90;;;;;;4972355;28;20093;-88
2022/04/06 06:57:29;;;;;;;9.88;1.13;;;9.90;99.90;;;;;;4974663;28;20113;-89
2022/04/06 06:59:55;;;;;;;12.00;1.50;;;10.00;99.90;;;;;;4970585;28;20129;-88
2022/04/06 07:02:21;;;;;;;10.70;1.13;;;10.00;99.90;;;;;;4974069;28;20046;-87
2022/04/06 07:04:47;;;;;;;9.82;1.17;;;9.90;99.90;;;;;;4974359;28;20088;-89
2022/04/06 07:07:12;;;;;;;4.22;0.80;;;10.00;99.90;;;;;;4973178;28;20027;-88
2022/04/06 07:09:38;;;;;;;8.10;1.02;;;10.00;99.90;;;;;;4973897;28;20537;-87
2022/04/06 07:12:04;;;;;;;7.45;0.70;;;10.00;99.90;;;;;;4970389;28;20047;-87
2022/04/06 07:14:30;;;;;;;6.80;0.60;;;10.00;99.90;;;;;;4961576;28;20089;-88
2022/04/06 07:16:56;;;;;;;10.20;0.70;;;10.10;99.90;;;;;;4970030;28;20030;-89
2022/04/06 07:19:21;;;;;;;6.13;1.50;;;10.10;99.90;;;;;;4974247;28;20030;-86
2022/04/06 07:21:47;;;;;;;6.00;0.70;;;10.10;99.90;;;;;;4971522;28;20029;-88
2022/04/06 07:24:13;;;;;;;7.55;0.90;;;10.20;99.90;;;;;;4974742;28;20055;-87
2022/04/06 07:26:38;;;;;;;5.53;0.80;;;10.10;99.90;;;;;;4973943;28;20059;-88
2022/04/06 07:29:04;;;;;;;8.48;1.05;;;10.20;99.90;;;;;;4968534;28;20047;-88
2022/04/06 07:31:29;;;;;;;4.72;0.70;;;10.20;99.90;;;;;;4971857;28;20035;-89
2022/04/06 07:33:55;;;;;;;4.40;0.80;;;10.30;99.90;;;;;;4972339;28;20038;-88
2022/04/06 07:36:21;;;;;;;5.65;1.00;;;10.30;99.90;;;;;;4974878;28;20034;-88
2022/04/06 07:38:46;;;;;;;8.20;0.70;;;10.30;99.90;;;;;;4970482;28;20499;-87
2022/04/06 07:41:12;;;;;;;5.70;0.98;;;10.30;99.90;;;;;;4973757;28;20157;-88
2022/04/06 07:43:37;;;;;;;4.25;0.65;;;10.30;99.90;;;;;;4974180;28;20042;-90
2022/04/06 07:46:03;;;;;;;8.85;0.70;;;10.40;99.90;;;;;;4974711;28;20077;-90
2022/04/06 07:48:30;;;;;;;3.47;0.63;;;10.40;99.90;;;;;;4974100;28;20050;-89
2022/04/06 07:50:56;;;;;;;5.32;0.70;;;10.50;99.90;;;;;;4962692;28;20027;-92
2022/04/06 07:53:22;;;;;;;3.97;0.50;;;10.50;99.90;;;;;;4973802;28;20420;-89
2022/04/06 07:55:49;;;;;;;5.35;1.17;;;10.60;99.90;;;;;;4970828;28;20023;-88
2022/04/06 07:58:18;;;;;;;3.88;0.68;;;10.60;99.90;;;;;;4972531;28;20442;-88
2022/04/06 08:00:44;;;;;;;6.18;0.73;;;10.60;99.90;;;;;;4965594;28;20019;-87
2022/04/06 08:03:10;;;;;;;7.03;1.38;;;10.60;99.90;;;;;;4963323;28;20039;-87
2022/04/06 08:05:35;;;;;;;5.25;0.60;;;10.60;99.90;;;;;;4973760;28;20023;-87
2022/04/06 08:08:01;;;;;;;5.72;0.70;;;10.60;99.90;;;;;;4965677;28;20030;-88
2022/04/06 08:10:30;;;;;;;4.63;0.50;;;10.60;99.90;;;;;;4963730;28;20043;-88
2022/04/06 08:12:55;;;;;;;8.77;0.77;;;10.60;99.90;;;;;;4970581;28;20094;-86
2022/04/06 08:15:21;;;;;;;5.18;0.50;;;10.70;99.90;;;;;;4972733;28;20031;-87
2022/04/06 08:17:49;;;;;;;6.63;0.75;;;10.70;99.90;;;;;;4973099;28;20034;-87
2022/04/06 08:20:16;;;;;;;6.55;0.70;;;10.80;99.90;;;;;;4972271;28;20027;-88
2022/04/06 08:22:44;;;;;;;5.65;0.77;;;10.90;99.90;;;;;;4969820;28;20030;-88
2022/04/06 08:25:14;;;;;;;4.25;0.50;;;10.90;99.90;;;;;;4958829;28;20039;-88
2022/04/06 08:27:46;;;;;;;5.70;0.80;;;10.90;99.90;;;;;;4973062;28;20521;-85
2022/04/06 08:30:13;;;;;;;2.43;0.60;;;11.00;99.90;;;;;;4972842;28;20041;-87
2022/04/06 08:32:38;;;;;;;7.85;0.80;;;10.90;99.90;;;;;;4972757;28;20790;-87
2022/04/06 08:35:05;;;;;;;6.38;0.85;;;10.90;99.90;;;;;;4972919;28;20027;-87
2022/04/06 08:37:32;;;;;;;6.22;1.00;;;10.90;99.90;;;;;;4974073;28;20034;-87
2022/04/06 08:39:58;;;;;;;10.15;1.13;;;10.90;99.90;;;;;;4970966;28;20177;-87
2022/04/06 08:42:27;;;;;;;6.53;1.20;;;10.90;99.90;;;;;;4972846;28;20027;-87
2022/04/06 08:44:53;;;;;;;7.65;1.42;;;10.90;99.90;;;;;;4975702;28;20105;-87
2022/04/06 08:47:19;;;;;;;5.55;0.98;;;10.90;99.90;;;;;;4976934;28;20077;-86
2022/04/06 08:49:46;;;;;;;5.07;0.77;;;10.90;99.90;;;;;;4975959;28;20070;-89
2022/04/06 08:52:12;;;;;;;9.30;1.20;;;11.00;99.90;;;;;;4977481;28;20029;-88
2022/04/06 08:54:38;;;;;;;5.50;1.20;;;11.00;99.90;;;;;;4976632;28;20035;-88
2022/04/06 08:57:05;;;;;;;5.28;1.20;;;10.90;99.90;;;;;;4976600;28;20030;-88
2022/04/06 08:59:32;;;;;;;7.25;1.33;;;10.90;99.90;;;;;;4978590;28;20105;-88
2022/04/06 09:01:58;;;;;;;5.55;1.13;;;10.90;99.90;;;;;;4975850;28;20031;-87
2022/04/06 09:04:24;;;;;;;5.97;1.38;;;10.80;99.90;;;;;;4969475;28;20034;-87
2022/04/06 09:06:51;;;;;;;9.63;2.17;;;10.90;99.90;;;;;;4976622;28;20053;-87
2022/04/06 09:09:21;;;;;;;7.32;1.70;;;10.80;99.90;;;;;;4977973;28;20491;-88
2022/04/06 09:11:48;;;;;;;10.80;2.10;;;10.90;99.90;;;;;;4972940;28;20178;-88
2022/04/06 09:14:13;;;;;;;9.38;2.05;;;10.90;99.90;;;;;;4969633;28;20027;-88
2022/04/06 09:16:39;;;;;;;7.10;1.88;;;10.90;99.90;;;;;;4972389;28;20506;-87
2022/04/06 09:19:09;;;;;;;6.68;2.20;;;10.90;99.90;;;;;;4985763;28;20026;-87
2022/04/06 09:21:48;;;;;;;11.25;2.85;;;10.90;99.90;;;;;;4975453;28;20023;-88
2022/04/06 09:24:18;;;;;;;6.90;1.75;;;10.90;99.90;;;;;;4976320;28;20102;-87
2022/04/06 09:26:54;;;;;;;6.10;1.63;;;10.80;99.90;;;;;;4975059;28;20074;-88
2022/04/06 09:29:21;;;;;;;9.68;2.17;;;10.80;99.90;;;;;;4975252;28;20111;-86
2022/04/06 09:31:48;;;;;;;13.35;2.25;;;10.80;99.90;;;;;;4972236;28;20026;-87
2022/04/06 09:34:14;;;;;;;11.80;2.03;;;10.70;99.90;;;;;;4971590;28;20050;-87
2022/04/06 09:36:39;;;;;;;8.65;2.22;;;10.60;99.90;;;;;;4975723;28;20027;-87
2022/04/06 09:39:05;;;;;;;9.07;2.63;;;10.50;99.90;;;;;;4976270;28;20054;-86
2022/04/06 09:41:32;;;;;;;8.63;2.60;;;10.40;99.90;;;;;;4974205;28;20550;-87
2022/04/06 09:50:20;;;;;;;11.75;3.60;;;10.30;99.90;;;;;;4976403;28;20080;-88
2022/04/06 09:52:47;;;;;;;9.55;3.25;;;10.30;99.90;;;;;;4973766;28;20033;-88
2022/04/06 09:55:14;;;;;;;10.15;3.72;;;10.30;99.90;;;;;;4975689;28;20030;-89
2022/04/06 09:57:50;;;;;;;13.38;3.97;;;10.30;99.90;;;;;;4959655;28;20395;-88
2022/04/06 10:00:18;;;;;;;10.73;3.95;;;10.30;99.90;;;;;;4970234;28;20031;-89
2022/04/06 10:03:07;;;;;;;11.35;3.42;;;10.20;99.90;;;;;;4978074;28;20027;-88
2022/04/06 10:05:38;;;;;;;11.57;3.90;;;10.30;99.90;;;;;;4966554;28;20518;-89
2022/04/06 10:08:09;;;;;;;10.00;3.17;;;10.30;99.90;;;;;;4973620;28;20082;-90
2022/04/06 10:10:40;;;;;;;8.05;2.90;;;10.30;99.90;;;;;;4977659;28;20034;-90
2022/04/06 10:13:09;;;;;;;5.95;3.38;;;10.30;99.90;;;;;;4977523;28;20046;-89
2022/04/06 10:15:37;;;;;;;12.00;4.55;;;10.40;99.90;;;;;;4993238;28;20030;-89
2022/04/06 10:18:03;;;;;;;12.32;4.13;;;10.50;99.90;;;;;;4965096;28;20451;-91
2022/04/06 10:20:35;;;;;;;7.97;3.20;;;10.60;99.90;;;;;;4975950;28;20025;-89
2022/04/06 10:23:30;;;;;;;12.75;3.20;;;10.50;99.90;;;;;;4976139;28;20042;-91
2022/04/06 10:26:19;;;;;;;9.35;3.67;;;10.50;99.90;;;;;;4975936;28;20031;-90
2022/04/06 10:28:48;;;;;;;8.88;4.18;;;10.40;99.90;;;;;;4975999;28;20434;-91
2022/04/06 10:31:19;;;;;;;9.60;4.55;;;10.20;99.90;;;;;;4975614;28;20031;-90
2022/04/06 10:33:46;;;;;;;9.23;3.40;;;10.20;99.90;;;;;;4976642;28;20023;-91
2022/04/06 10:36:32;;;;;;;10.52;3.88;;;10.20;99.90;;;;;;4976087;28;20011;-88
2022/04/06 10:39:18;;;;;;;10.18;3.60;;;10.10;99.90;;;;;;4976543;28;20023;-89
2022/04/06 10:42:17;;;;;;;8.75;4.00;;;10.10;99.90;;;;;;4974900;28;20038;-90
2022/04/06 10:44:43;;;;;;;11.48;4.43;;;10.20;99.90;;;;;;4925060;29;20035;-91
2022/04/06 10:47:11;;;;;;;12.38;3.83;;;10.10;99.90;;;;;;4958494;28;20034;-90
2022/04/06 10:49:38;;;;;;;8.80;3.30;;;10.10;99.90;;;;;;4975632;28;20117;-90
2022/04/06 10:52:22;;;;;;;9.00;3.80;;;10.20;99.90;;;;;;4975766;28;20061;-90
2022/04/06 10:54:49;;;;;;;8.15;4.20;;;10.20;99.90;;;;;;4975982;28;20023;-91
2022/04/06 10:57:15;;;;;;;10.20;3.72;;;10.20;99.90;;;;;;4975226;28;20054;-89
2022/04/06 10:59:40;;;;;;;9.43;3.58;;;10.20;99.90;;;;;;4966780;28;20073;-88
2022/04/06 11:02:21;;;;;;;8.77;3.63;;;10.20;99.90;;;;;;4971040;28;20038;-89
2022/04/06 11:04:49;;;;;;;9.55;3.42;;;10.30;99.90;;;;;;4970020;28;20050;-90
2022/04/06 11:10:29;;;;;;;9.60;3.25;;;10.40;99.90;;;;;;4970731;28;20525;-89
2022/04/06 11:13:04;;;;;;;5.60;2.83;;;10.40;99.90;;;;;;4971451;28;20039;-90
2022/04/06 11:15:38;;;;;;;9.45;3.15;;;10.50;99.90;;;;;;4972398;28;20483;-88
2022/04/06 11:18:05;;;;;;;8.98;2.60;;;10.60;99.90;;;;;;4967216;28;20037;-89
2022/04/06 11:20:33;;;;;;;8.88;2.63;;;10.60;99.90;;;;;;4959171;28;20062;-89
2022/04/06 11:23:00;;;;;;;9.98;2.83;;;10.60;99.90;;;;;;4965307;28;20023;-89
2022/04/06 11:25:28;;;;;;;9.30;3.53;;;10.60;99.90;;;;;;4964550;28;20019;-87
2022/04/06 11:27:55;;;;;;;6.45;2.60;;;10.60;99.90;;;;;;4970722;28;20031;-89
2022/04/06 11:30:26;;;;;;;9.32;2.90;;;10.60;99.90;;;;;;4963699;28;20534;-89
2022/04/06 11:32:53;;;;;;;5.50;2.45;;;10.60;99.90;;;;;;4965732;28;20023;-87
2022/04/06 11:35:19;;;;;;;12.52;3.08;;;10.60;99.90;;;;;;4963223;28;20038;-88
2022/04/06 11:37:48;;;;;;;8.68;2.67;;;10.60;99.90;;;;;;4967467;28;21937;-88
2022/04/06 11:40:18;;;;;;;12.80;3.38;;;10.60;99.90;;;;;;4973188;28;20030;-89
2022/04/06 11:42:49;;;;;;;9.20;2.78;;;10.60;99.90;;;;;;4959276;28;20041;-86
2022/04/06 11:45:27;;;;;;;10.55;2.80;;;10.60;99.90;;;;;;4962011;28;20034;-89
2022/04/06 11:48:00;;;;;;;11.20;2.58;;;10.60;99.90;;;;;;4965842;28;20061;-88
2022/04/06 11:50:33;;;;;;;9.70;2.90;;;10.70;99.90;;;;;;4974279;28;20479;-88
2022/04/06 11:53:03;;;;;;;8.13;3.35;;;10.70;99.90;;;;;;4974698;28;20035;-89
2022/04/06 11:55:50;;;;;;;9.23;2.58;;;10.70;99.90;;;;;;4974593;28;20391;-88
2022/04/06 11:58:37;;;;;;;6.40;2.60;;;10.70;99.90;;;;;;4973972;28;20117;-89
2022/04/06 12:01:11;;;;;;;7.18;2.10;;;10.80;99.90;;;;;;4974015;28;20026;-88
2022/04/06 12:03:42;;;;;;;7.38;2.33;;;10.80;99.90;;;;;;4972867;28;20026;-88
2022/04/06 12:06:12;;;;;;;11.63;2.65;;;10.80;99.90;;;;;;4974111;28;20050;-88
2022/04/06 12:08:40;;;;;;;6.97;2.33;;;10.90;99.90;;;;;;4973340;28;20019;-87
2022/04/06 12:11:05;;;;;;;8.30;2.15;;;10.90;99.90;;;;;;4961877;28;20031;-88
2022/04/06 12:13:33;;;;;;;5.40;1.90;;;10.90;99.90;;;;;;4972288;28;20074;-88
2022/04/06 12:16:00;;;;;;;6.65;2.25;;;11.00;99.90;;;;;;4975972;28;20046;-88
2022/04/06 12:18:27;;;;;;;8.02;1.90;;;11.00;99.90;;;;;;4977451;28;20026;-88
2022/04/06 12:20:54;;;;;;;6.32;2.15;;;11.10;99.90;;;;;;4977808;28;20105;-88
2022/04/06 12:23:23;;;;;;;8.65;2.17;;;11.10;99.90;;;;;;4978913;28;20023;-89
2022/04/06 12:25:48;;;;;;;5.00;1.88;;;11.20;99.90;;;;;;4969069;28;20027;-85
2022/04/06 12:28:22;;;;;;;7.82;2.00;;;11.30;99.90;;;;;;4977385;28;20100;-87
2022/04/06 12:30:59;;;;;;;4.05;1.42;;;11.40;99.90;;;;;;4973856;28;20039;-87
2022/04/06 12:33:39;;;;;;;5.20;1.60;;;11.40;99.90;;;;;;4968632;28;20135;-87
2022/04/06 12:36:09;;;;;;;6.25;1.70;;;11.50;99.90;;;;;;4977028;28;20059;-88
2022/04/06 12:38:39;;;;;;;4.45;1.45;;;11.50;99.90;;;;;;4976220;28;20558;-88
2022/04/06 12:41:13;;;;;;;8.80;2.03;;;11.50;99.90;;;;;;4976910;28;20125;-88
2022/04/06 12:43:45;;;;;;;6.88;1.60;;;11.50;99.90;;;;;;4971339;28;20055;-87
2022/04/06 12:46:12;;;;;;;5.90;2.28;;;11.60;99.90;;;;;;4961347;28;20128;-88
2022/04/06 12:48:37;;;;;;;4.55;2.35;;;11.60;99.90;;;;;;4976549;28;20054;-88
2022/04/06 12:51:21;;;;;;;4.60;1.50;;;11.50;99.90;;;;;;4976557;28;20031;-88
2022/04/06 12:53:51;;;;;;;5.88;1.73;;;11.50;99.90;;;;;;4976167;28;20030;-88
2022/04/06 12:56:24;;;;;;;3.65;1.63;;;11.50;99.90;;;;;;4976755;28;20085;-88
2022/04/06 12:59:09;;;;;;;7.15;2.38;;;11.60;99.90;;;;;;4976717;28;20546;-88
2022/04/06 13:01:46;;;;;;;9.50;1.55;;;11.60;99.90;;;;;;4976626;28;20035;-87